createdAt,value
2023-01-23T00:01:12.544Z,25.08
2023-01-23T00:03:38.974Z,19.88
2023-01-23T00:06:07.117Z,27.55
2023-01-23T00:08:34.018Z,22.85
2023-01-23T00:11:00.318Z,25.33
2023-01-23T00:13:26.502Z,23.85
2023-01-23T00:15:53.083Z,23.77
2023-01-23T00:18:19.337Z,19.52
2023-01-23T00:20:45.524Z,23.85
2023-01-23T00:23:12.323Z,20.35
2023-01-23T00:25:38.630Z,21.10
2023-01-23T00:28:04.991Z,24.23
2023-01-23T00:30:31.219Z,25.85
2023-01-23T00:32:57.435Z,18.48
2023-01-23T00:35:23.656Z,26.35
2023-01-23T00:37:49.917Z,19.60
2023-01-23T00:40:16.133Z,20.48
2023-01-23T00:42:42.304Z,24.58
2023-01-23T00:45:08.661Z,19.48
2023-01-23T00:47:34.868Z,20.40
2023-01-23T00:50:01.070Z,23.55
2023-01-23T00:52:27.650Z,21.25
2023-01-23T00:54:53.869Z,23.33
2023-01-23T00:57:20.084Z,22.25
2023-01-23T00:59:46.294Z,21.60
2023-01-23T01:02:12.488Z,18.67
2023-01-23T01:04:38.683Z,26.08
2023-01-23T01:07:04.918Z,21.98
2023-01-23T01:09:31.141Z,23.88
2023-01-23T01:11:57.354Z,22.85
2023-01-23T01:14:23.579Z,17.95
2023-01-23T01:16:49.778Z,24.17
2023-01-23T01:19:17.502Z,14.95
2023-01-23T01:21:43.921Z,20.75
2023-01-23T01:24:10.322Z,22.40
2023-01-23T01:26:36.540Z,20.90
2023-01-23T01:29:03.094Z,23.30
2023-01-23T01:31:29.458Z,20.33
2023-01-23T01:33:55.696Z,21.85
2023-01-23T01:36:22.866Z,21.77
2023-01-23T01:38:49.099Z,21.23
2023-01-23T01:41:16.148Z,23.40
2023-01-23T01:43:42.839Z,25.15
2023-01-23T01:46:11.468Z,23.50
2023-01-23T01:48:42.879Z,19.67
2023-01-23T01:51:32.220Z,20.45
2023-01-23T01:54:07.494Z,23.13
2023-01-23T01:56:37.173Z,25.27
2023-01-23T01:59:04.851Z,23.17
2023-01-23T02:01:31.376Z,21.70
2023-01-23T02:03:57.770Z,21.95
2023-01-23T02:06:24.268Z,24.40
2023-01-23T02:08:53.762Z,26.65
2023-01-23T02:11:20.240Z,21.10
2023-01-23T02:13:46.535Z,23.80
2023-01-23T02:16:14.184Z,24.63
2023-01-23T02:18:44.406Z,23.70
2023-01-23T02:21:11.199Z,26.73
2023-01-23T02:23:37.485Z,25.55
2023-01-23T02:26:05.822Z,28.92
2023-01-23T02:28:39.346Z,28.65
2023-01-23T02:31:05.867Z,26.77
2023-01-23T02:33:32.278Z,24.20
2023-01-23T02:35:58.956Z,23.95
2023-01-23T02:38:27.593Z,22.75
2023-01-23T02:40:55.457Z,25.00
2023-01-23T02:43:24.415Z,26.60
2023-01-23T02:45:50.731Z,28.02
2023-01-23T02:48:16.966Z,31.35
2023-01-23T02:50:46.217Z,27.38
2023-01-23T02:53:12.824Z,26.98
2023-01-23T02:55:43.111Z,33.72
2023-01-23T02:58:27.782Z,23.23
2023-01-23T03:00:54.017Z,20.27
2023-01-23T03:03:20.430Z,21.00
2023-01-23T03:05:46.930Z,22.00
2023-01-23T03:08:13.176Z,30.30
2023-01-23T03:10:39.454Z,26.83
2023-01-23T03:13:07.292Z,28.23
2023-01-23T03:15:34.059Z,26.60
2023-01-23T03:18:00.685Z,25.25
2023-01-23T03:20:28.153Z,28.20
2023-01-23T03:22:54.375Z,26.67
2023-01-23T03:25:20.588Z,24.30
2023-01-23T03:27:46.939Z,27.42
2023-01-23T03:30:13.900Z,26.48
2023-01-23T03:32:40.518Z,24.60
2023-01-23T03:35:06.948Z,32.10
2023-01-23T03:37:33.235Z,24.02
2023-01-23T03:40:18.566Z,22.75
2023-01-23T03:42:45.033Z,25.42
2023-01-23T03:45:11.305Z,29.67
2023-01-23T03:47:37.693Z,27.55
2023-01-23T03:50:04.140Z,24.45
2023-01-23T03:52:30.354Z,25.63
2023-01-23T03:54:56.631Z,25.02
2023-01-23T03:57:22.925Z,27.23
2023-01-23T03:59:49.162Z,27.90
2023-01-23T04:02:15.594Z,26.02
2023-01-23T04:04:41.865Z,24.05
2023-01-23T04:07:08.856Z,23.58
2023-01-23T04:09:35.147Z,25.10
2023-01-23T04:12:01.735Z,26.88
2023-01-23T04:14:30.335Z,26.42
2023-01-23T04:16:56.559Z,27.98
2023-01-23T04:19:22.826Z,25.90
2023-01-23T04:21:49.373Z,29.48
2023-01-23T04:24:16.304Z,28.35
2023-01-23T04:26:42.535Z,32.78
2023-01-23T04:29:08.747Z,27.92
2023-01-23T04:31:35.323Z,26.13
2023-01-23T04:34:01.596Z,27.23
2023-01-23T04:36:27.859Z,22.65
2023-01-23T04:38:54.135Z,28.10
2023-01-23T04:41:24.603Z,27.73
2023-01-23T04:43:50.819Z,24.58
2023-01-23T04:46:17.090Z,26.52
2023-01-23T04:48:43.368Z,29.33
2023-01-23T04:51:09.835Z,27.15
2023-01-23T04:53:36.124Z,26.23
2023-01-23T04:56:02.457Z,26.80
2023-01-23T04:58:28.700Z,20.27
2023-01-23T05:00:54.940Z,24.05
2023-01-23T05:03:21.209Z,23.13
2023-01-23T05:05:47.861Z,23.50
2023-01-23T05:08:14.056Z,26.75
2023-01-23T05:10:40.376Z,21.17
2023-01-23T05:13:06.644Z,29.98
2023-01-23T05:15:32.912Z,32.75
2023-01-23T05:17:59.234Z,25.58
2023-01-23T05:20:25.485Z,25.83
2023-01-23T05:22:55.280Z,27.67
2023-01-23T05:25:23.492Z,27.70
2023-01-23T05:27:49.800Z,26.67
2023-01-23T05:30:16.447Z,26.80
2023-01-23T05:32:42.945Z,21.63
2023-01-23T05:35:09.597Z,29.45
2023-01-23T05:37:36.244Z,24.25
2023-01-23T05:40:02.536Z,27.90
2023-01-23T05:42:28.734Z,24.30
2023-01-23T05:44:54.973Z,26.25
2023-01-23T05:47:21.203Z,23.52
2023-01-23T05:49:47.406Z,22.63
2023-01-23T05:52:13.626Z,25.23
2023-01-23T05:54:39.819Z,22.65
2023-01-23T05:57:06.042Z,25.13
2023-01-23T05:59:32.340Z,27.08
2023-01-23T06:01:58.581Z,26.35
2023-01-23T06:04:26.137Z,26.73
2023-01-23T06:06:52.323Z,20.52
2023-01-23T06:09:18.647Z,24.95
2023-01-23T06:11:44.852Z,21.92
2023-01-23T06:14:11.069Z,25.48
2023-01-23T06:16:37.298Z,24.38
2023-01-23T06:19:03.545Z,25.77
2023-01-23T06:21:29.753Z,22.75
2023-01-23T06:23:55.965Z,23.30
2023-01-23T06:26:22.230Z,25.27
2023-01-23T06:28:48.441Z,26.33
2023-01-23T06:31:14.727Z,22.60
2023-01-23T06:33:41.011Z,24.35
2023-01-23T06:36:07.498Z,24.02
2023-01-23T06:38:33.916Z,26.23
2023-01-23T06:41:00.166Z,26.25
2023-01-23T06:43:26.885Z,26.35
2023-01-23T06:45:53.180Z,24.98
2023-01-23T06:48:19.567Z,22.60
2023-01-23T06:50:45.778Z,25.42
2023-01-23T06:53:14.123Z,24.02
2023-01-23T06:55:40.397Z,21.73
2023-01-23T06:58:07.286Z,21.77
2023-01-23T07:00:36.451Z,27.08
2023-01-23T07:03:03.592Z,29.40
2023-01-23T07:05:30.674Z,32.35
2023-01-23T07:07:56.913Z,23.83
2023-01-23T07:10:23.325Z,23.35
2023-01-23T07:12:50.467Z,24.10
2023-01-23T07:15:17.011Z,21.60
2023-01-23T07:17:43.577Z,26.00
2023-01-23T07:20:10.204Z,22.45
2023-01-23T07:22:36.447Z,21.52
2023-01-23T07:25:02.653Z,25.30
2023-01-23T07:27:28.901Z,23.85
2023-01-23T07:29:55.120Z,25.40
2023-01-23T07:32:21.358Z,21.40
2023-01-23T07:34:47.660Z,21.50
2023-01-23T07:37:14.073Z,21.25
2023-01-23T07:39:40.257Z,26.42
2023-01-23T07:42:06.463Z,19.35
2023-01-23T07:44:32.652Z,20.15
2023-01-23T07:46:58.837Z,19.85
2023-01-23T07:49:25.060Z,21.75
2023-01-23T07:51:51.319Z,20.25
2023-01-23T07:54:17.515Z,24.30
2023-01-23T07:56:43.764Z,24.02
2023-01-23T07:59:11.583Z,26.20
2023-01-23T08:01:37.836Z,22.63
2023-01-23T08:04:04.086Z,22.88
2023-01-23T08:06:30.413Z,25.75
2023-01-23T08:08:56.617Z,30.13
2023-01-23T08:11:23.899Z,21.55
2023-01-23T08:13:50.476Z,20.52
2023-01-23T08:16:16.755Z,24.10
2023-01-23T08:18:43.025Z,28.98
2023-01-23T08:21:09.388Z,23.58
2023-01-23T08:23:36.037Z,27.25
2023-01-23T08:26:04.019Z,30.38
2023-01-23T08:28:30.255Z,23.48
2023-01-23T08:31:00.097Z,28.20
2023-01-23T08:33:26.405Z,22.67
2023-01-23T08:35:53.862Z,24.42
2023-01-23T08:38:20.598Z,27.38
2023-01-23T08:40:47.484Z,23.92
2023-01-23T08:43:16.471Z,26.13
2023-01-23T08:45:50.559Z,24.58
2023-01-23T08:48:17.207Z,28.92
2023-01-23T08:50:43.417Z,23.58
2023-01-23T08:53:09.686Z,23.08
2023-01-23T08:55:37.376Z,27.23
2023-01-23T08:58:03.608Z,23.48
2023-01-23T09:00:30.554Z,26.55
2023-01-23T09:02:59.016Z,25.92
2023-01-23T09:05:25.244Z,25.25
2023-01-23T09:07:51.557Z,24.00
2023-01-23T09:10:17.919Z,22.75
2023-01-23T09:12:44.336Z,26.10
2023-01-23T09:15:10.989Z,28.80
2023-01-23T09:17:37.241Z,24.17
2023-01-23T09:20:05.697Z,21.73
2023-01-23T09:22:31.928Z,25.77
2023-01-23T09:24:58.203Z,26.95
2023-01-23T09:27:24.467Z,26.73
2023-01-23T09:29:52.943Z,26.88
2023-01-23T09:32:19.152Z,20.88
2023-01-23T09:34:48.757Z,19.02
2023-01-23T09:37:15.617Z,22.25
2023-01-23T09:39:44.884Z,26.75
2023-01-23T09:42:33.785Z,35.13
2023-01-23T09:45:02.966Z,22.48
2023-01-23T09:47:38.841Z,28.42
2023-01-23T09:50:07.783Z,24.08
2023-01-23T09:52:35.349Z,23.02
2023-01-23T09:55:10.560Z,24.00
2023-01-23T09:57:40.311Z,20.83
2023-01-23T10:00:36.429Z,23.15
2023-01-23T10:03:04.203Z,22.45
2023-01-23T10:05:34.790Z,26.77
2023-01-23T10:08:00.966Z,20.95
2023-01-23T10:10:30.208Z,22.30
2023-01-23T10:13:07.678Z,23.83
2023-01-23T10:15:40.282Z,20.50
2023-01-23T10:18:09.517Z,20.20
2023-01-23T10:20:54.882Z,22.25
2023-01-23T10:23:24.204Z,24.38
2023-01-23T10:25:50.757Z,21.30
2023-01-23T10:28:21.949Z,25.10
2023-01-23T10:30:51.487Z,21.63
2023-01-23T10:33:18.055Z,15.18
2023-01-23T10:35:47.545Z,21.58
2023-01-23T10:38:22.834Z,20.80
2023-01-23T10:41:07.882Z,18.10
2023-01-23T10:43:34.947Z,19.80
2023-01-23T10:46:01.200Z,20.17
2023-01-23T10:48:33.735Z,19.63
2023-01-23T10:51:00.470Z,17.23
2023-01-23T10:53:27.170Z,24.83
2023-01-23T10:55:55.613Z,20.45
2023-01-23T10:58:27.864Z,20.08
2023-01-23T11:00:54.060Z,21.30
2023-01-23T11:03:20.262Z,20.08
2023-01-23T11:06:03.805Z,17.80
2023-01-23T11:08:35.989Z,20.70
2023-01-23T11:11:17.908Z,20.95
2023-01-23T11:13:44.879Z,21.45
2023-01-23T11:16:21.503Z,21.75
2023-01-23T11:18:55.075Z,20.55
2023-01-23T11:21:28.432Z,20.85
2023-01-23T11:24:07.951Z,19.08
2023-01-23T11:26:34.656Z,22.77
2023-01-23T11:29:00.867Z,19.02
2023-01-23T11:31:28.272Z,21.00
2023-01-23T11:34:03.314Z,18.08
2023-01-23T11:36:30.314Z,19.73
2023-01-23T11:39:16.785Z,18.23
2023-01-23T11:41:43.871Z,25.90
2023-01-23T11:44:16.784Z,20.17
2023-01-23T11:46:56.600Z,22.67
2023-01-23T11:49:41.628Z,18.17
2023-01-23T11:52:19.821Z,17.17
2023-01-23T11:55:04.912Z,17.27
2023-01-23T11:57:49.833Z,16.83
2023-01-23T12:00:24.370Z,18.75
2023-01-23T12:02:50.600Z,17.80
2023-01-23T12:05:24.676Z,16.92
2023-01-23T12:07:53.933Z,17.48
2023-01-23T12:10:23.865Z,17.00
2023-01-23T12:12:53.837Z,17.48
2023-01-23T12:15:28.939Z,16.13
2023-01-23T12:17:55.121Z,19.63
2023-01-23T12:20:33.124Z,21.55
2023-01-23T12:22:59.346Z,16.98
2023-01-23T12:25:31.270Z,20.05
2023-01-23T12:28:04.212Z,17.77
2023-01-23T12:30:54.492Z,15.38
2023-01-23T12:33:47.179Z,20.20
2023-01-23T12:36:16.340Z,18.63
2023-01-23T12:38:53.973Z,17.25
2023-01-23T12:41:20.214Z,22.20
2023-01-23T12:43:55.580Z,18.23
2023-01-23T12:46:30.475Z,18.67
2023-01-23T12:49:02.719Z,17.67
2023-01-23T12:51:33.660Z,17.67
2023-01-23T12:54:00.464Z,17.00
2023-01-23T12:56:31.646Z,16.27
2023-01-23T12:59:05.388Z,18.33
2023-01-23T13:01:42.391Z,11.75
2023-01-23T13:04:11.551Z,16.13
2023-01-23T13:06:38.420Z,15.18
2023-01-23T13:09:17.499Z,18.35
2023-01-23T13:11:47.594Z,17.92
2023-01-23T13:15:03.566Z,15.13
2023-01-23T13:17:30.497Z,15.75
2023-01-23T13:20:34.188Z,13.50
2023-01-23T13:23:18.965Z,13.80
2023-01-23T13:25:45.687Z,14.73
2023-01-23T13:28:44.169Z,16.38
2023-01-23T13:31:24.806Z,16.20
2023-01-23T13:33:52.180Z,14.07
2023-01-23T13:36:24.102Z,15.75
2023-01-23T13:39:04.342Z,16.55
2023-01-23T13:41:31.523Z,14.83
2023-01-23T13:44:00.620Z,16.88
2023-01-23T14:22:00.191Z,17.40
2023-01-23T14:24:29.186Z,17.25
2023-01-23T14:27:02.442Z,19.70
2023-01-23T14:29:30.751Z,16.27
2023-01-23T14:31:57.036Z,15.45
2023-01-23T14:34:24.523Z,13.70
2023-01-23T14:37:04.386Z,17.00
2023-01-23T14:39:32.031Z,17.30
2023-01-23T14:42:02.674Z,15.77
2023-01-23T14:44:38.630Z,17.52
2023-01-23T14:47:05.291Z,15.70
2023-01-23T14:49:33.561Z,17.63
2023-01-23T14:52:01.139Z,16.70
2023-01-23T14:54:32.959Z,16.85
2023-01-23T14:57:01.150Z,14.63
2023-01-23T14:59:30.383Z,13.90
2023-01-23T15:02:05.331Z,16.65
2023-01-23T15:04:36.526Z,16.23
2023-01-23T15:07:02.794Z,16.25
2023-01-23T15:09:41.262Z,16.73
2023-01-23T15:12:11.850Z,12.27
2023-01-23T15:14:39.431Z,17.45
2023-01-23T15:17:07.378Z,19.15
2023-01-23T15:19:36.289Z,16.63
2023-01-23T15:22:18.043Z,16.40
2023-01-23T15:24:44.654Z,17.70
2023-01-23T15:27:25.977Z,17.25
2023-01-23T15:29:52.767Z,17.73
2023-01-23T15:32:23.935Z,17.65
2023-01-23T15:34:57.477Z,14.85
2023-01-23T15:37:24.896Z,15.23
2023-01-23T15:39:51.318Z,17.40
2023-01-23T15:42:17.513Z,20.92
2023-01-23T15:44:43.970Z,14.55
2023-01-23T15:47:10.679Z,16.02
2023-01-23T15:49:38.091Z,16.00
2023-01-23T15:52:18.767Z,15.00
2023-01-23T15:54:45.280Z,15.25
2023-01-23T15:57:12.348Z,13.88
2023-01-23T15:59:38.585Z,16.77
2023-01-23T16:02:05.566Z,17.55
2023-01-23T16:04:31.979Z,19.23
2023-01-23T16:07:00.454Z,17.25
2023-01-23T16:09:30.376Z,19.80
2023-01-23T16:11:57.343Z,16.83
2023-01-23T16:14:23.655Z,16.10
2023-01-23T16:16:49.899Z,14.77
2023-01-23T16:19:16.391Z,18.17
2023-01-23T16:21:49.884Z,13.60
2023-01-23T16:24:23.055Z,13.70
2023-01-23T16:26:50.410Z,14.90
2023-01-23T16:29:27.037Z,13.40
2023-01-23T16:31:53.844Z,11.95
2023-01-23T16:34:20.795Z,13.85
2023-01-23T16:36:47.806Z,12.48
2023-01-23T16:39:18.741Z,12.48
2023-01-23T16:41:45.475Z,14.90
2023-01-23T16:44:13.561Z,12.23
2023-01-23T16:46:39.781Z,12.07
2023-01-23T16:49:06.049Z,12.48
2023-01-23T16:51:34.166Z,14.18
2023-01-23T16:54:05.961Z,14.85
2023-01-23T16:56:38.879Z,14.25
2023-01-23T16:59:05.707Z,15.55
2023-01-23T17:01:35.767Z,13.55
2023-01-23T17:04:02.964Z,13.15
2023-01-23T17:06:29.393Z,13.10
2023-01-23T17:08:56.504Z,29.60
2023-01-23T17:11:30.461Z,15.77
2023-01-23T17:14:01.689Z,14.15
2023-01-23T17:16:28.370Z,13.57
2023-01-23T17:18:55.320Z,11.73
2023-01-23T17:21:23.480Z,12.32
2023-01-23T17:23:49.705Z,17.08
2023-01-23T17:26:17.134Z,12.68
2023-01-23T17:28:43.636Z,19.48
2023-01-23T17:31:15.733Z,11.30
2023-01-23T17:33:42.484Z,11.93
2023-01-23T17:36:08.819Z,13.68
2023-01-23T17:38:35.220Z,14.40
2023-01-23T17:41:01.759Z,14.85
2023-01-23T17:43:28.935Z,13.93
2023-01-23T17:45:55.338Z,12.95
2023-01-23T17:48:31.333Z,13.20
2023-01-23T17:50:57.604Z,14.25
2023-01-23T17:53:23.975Z,14.23
2023-01-23T17:55:51.344Z,14.45
2023-01-23T17:58:18.126Z,11.35
2023-01-23T18:00:45.878Z,14.13
2023-01-23T18:03:13.516Z,12.93
2023-01-23T18:05:39.846Z,16.38
2023-01-23T18:08:06.167Z,17.23
2023-01-23T18:10:35.858Z,15.50
2023-01-23T18:13:03.355Z,14.70
2023-01-23T18:15:41.501Z,16.10
2023-01-23T18:18:18.020Z,17.08
2023-01-23T18:20:44.334Z,11.70
2023-01-23T18:23:14.154Z,15.80
2023-01-23T18:25:42.611Z,15.48
2023-01-23T18:28:14.273Z,17.30
2023-01-23T18:30:59.175Z,17.77
2023-01-23T18:33:26.974Z,17.88
2023-01-23T18:36:05.288Z,15.95
2023-01-23T18:38:50.037Z,16.05
2023-01-23T18:41:22.267Z,13.95
2023-01-23T18:44:12.333Z,14.27
2023-01-23T18:46:38.688Z,15.23
2023-01-23T18:49:05.092Z,16.17
2023-01-23T18:51:38.512Z,16.33
2023-01-23T18:54:20.140Z,15.75
2023-01-23T18:56:56.158Z,15.68
2023-01-23T18:59:22.721Z,16.33
2023-01-23T19:02:00.171Z,19.55
2023-01-23T19:04:30.228Z,17.40
2023-01-23T19:06:57.111Z,16.98
2023-01-23T19:09:25.182Z,14.50
2023-01-23T19:12:25.033Z,11.82
2023-01-23T19:15:09.737Z,12.45
2023-01-23T19:17:42.252Z,14.98
2023-01-23T19:20:26.816Z,17.33
2023-01-23T19:22:55.172Z,17.77
2023-01-23T19:25:21.913Z,16.30
2023-01-23T19:27:52.734Z,16.40
2023-01-23T19:30:20.150Z,17.40
2023-01-23T19:32:46.533Z,14.98
2023-01-23T19:35:14.232Z,15.75
2023-01-23T19:37:41.376Z,15.93
2023-01-23T19:40:08.855Z,18.33
2023-01-23T19:42:52.446Z,17.73
2023-01-23T19:45:22.709Z,16.77
2023-01-23T19:47:50.445Z,15.98
2023-01-23T19:50:17.956Z,18.95
2023-01-23T19:52:44.786Z,16.52
2023-01-23T19:55:23.658Z,18.73
2023-01-23T19:57:50.297Z,15.98
2023-01-23T20:00:16.839Z,18.10
2023-01-23T20:02:43.408Z,16.98
2023-01-23T20:05:10.674Z,16.10
2023-01-23T20:07:36.939Z,17.73
2023-01-23T20:10:03.881Z,16.10
2023-01-23T20:12:30.145Z,16.48
2023-01-23T20:14:56.903Z,15.48
2023-01-23T20:17:23.381Z,15.93
2023-01-23T20:19:49.649Z,14.48
2023-01-23T20:22:15.851Z,14.38
2023-01-23T20:24:42.027Z,14.27
2023-01-23T20:27:08.406Z,18.15
2023-01-23T20:29:34.842Z,14.27
2023-01-23T20:32:01.048Z,17.30
2023-01-23T20:34:27.303Z,13.85
2023-01-23T20:36:53.518Z,14.55
2023-01-23T20:39:19.700Z,17.17
2023-01-23T20:41:45.915Z,16.00
2023-01-23T20:44:12.094Z,15.70
2023-01-23T20:46:38.292Z,12.88
2023-01-23T20:49:04.516Z,15.45
2023-01-23T20:51:31.829Z,16.08
2023-01-23T20:53:58.014Z,15.73
2023-01-23T20:56:27.432Z,14.65
2023-01-23T20:59:12.571Z,17.63
2023-01-23T21:01:58.296Z,15.85
2023-01-23T21:04:25.788Z,15.68
2023-01-23T21:06:52.317Z,16.40
2023-01-23T21:09:18.863Z,15.68
2023-01-23T21:11:45.421Z,17.50
2023-01-23T21:14:12.717Z,17.52
2023-01-23T21:16:38.932Z,16.95
2023-01-23T21:19:05.167Z,18.00
2023-01-23T21:21:31.385Z,18.25
2023-01-23T21:23:57.777Z,16.10
2023-01-23T21:26:25.365Z,15.73
2023-01-23T21:28:52.329Z,15.15
2023-01-23T21:31:20.565Z,16.02
2023-01-23T21:33:47.023Z,14.90
2023-01-23T21:36:14.376Z,16.58
2023-01-23T21:38:40.810Z,19.90
2023-01-23T21:41:07.017Z,17.58
2023-01-23T21:43:33.587Z,18.45
2023-01-23T21:45:59.949Z,16.60
2023-01-23T21:48:28.221Z,18.60
2023-01-23T21:51:02.738Z,12.70
2023-01-23T21:53:28.919Z,16.63
2023-01-23T21:55:55.129Z,17.95
2023-01-23T21:58:21.317Z,12.68
2023-01-23T22:01:06.272Z,20.98
2023-01-23T22:03:35.939Z,15.40
2023-01-23T22:06:02.392Z,15.93
2023-01-23T22:08:28.602Z,18.05
2023-01-23T22:10:54.819Z,15.95
2023-01-23T22:13:21.046Z,13.65
2023-01-23T22:15:47.265Z,13.18
2023-01-23T22:18:13.502Z,15.48
2023-01-23T22:20:39.700Z,15.35
2023-01-23T22:23:06.356Z,12.43
2023-01-23T22:25:33.009Z,13.63
2023-01-23T22:27:59.264Z,17.00
2023-01-23T22:30:25.502Z,14.73
2023-01-23T22:32:51.736Z,13.05
2023-01-23T22:35:17.929Z,15.40
2023-01-23T22:37:44.377Z,15.18
2023-01-23T22:40:10.833Z,14.48
2023-01-23T22:42:37.125Z,15.68
2023-01-23T22:45:03.606Z,15.18
2023-01-23T22:47:29.785Z,14.48
2023-01-23T22:49:56.026Z,13.68
2023-01-23T22:52:22.281Z,10.85
2023-01-23T22:54:48.447Z,9.70
2023-01-23T22:57:14.674Z,12.45
2023-01-23T22:59:40.902Z,12.50
2023-01-23T23:02:07.399Z,13.38
2023-01-23T23:04:33.663Z,11.50
2023-01-23T23:06:59.873Z,15.25
2023-01-23T23:09:26.136Z,11.55
2023-01-23T23:11:52.664Z,13.00
2023-01-23T23:14:18.949Z,15.55
2023-01-23T23:16:45.253Z,12.55
2023-01-23T23:19:11.541Z,13.88
2023-01-23T23:21:38.477Z,14.00
2023-01-23T23:24:05.889Z,13.55
2023-01-23T23:26:32.181Z,17.65
2023-01-23T23:28:59.114Z,14.23
2023-01-23T23:31:25.426Z,12.80
2023-01-23T23:33:51.706Z,13.48
2023-01-23T23:36:18.312Z,14.85
2023-01-23T23:38:44.603Z,14.27
2023-01-23T23:41:14.478Z,14.27
2023-01-23T23:43:40.700Z,12.18
2023-01-23T23:46:07.400Z,13.43
2023-01-23T23:48:34.418Z,13.65
2023-01-23T23:51:01.711Z,14.98
2023-01-23T23:53:28.428Z,15.32
2023-01-23T23:55:54.643Z,18.85
2023-01-23T23:58:20.843Z,13.45
